sensor_id;sensor_type;location;lat;lon;timestamp;P1;durP1;ratioP1;P2;durP2;ratioP2
63664;SDS011;49820;33.966;73.390;2022-10-12T00:01:28;2.10;;;1.50;;
63664;SDS011;49820;33.966;73.390;2022-10-12T00:03:57;2.90;;;1.77;;
63664;SDS011;49820;33.966;73.390;2022-10-12T00:06:26;3.63;;;2.30;;
63664;SDS011;49820;33.966;73.390;2022-10-12T00:08:55;4.32;;;2.63;;
63664;SDS011;49820;33.966;73.390;2022-10-12T00:11:26;4.30;;;2.88;;
63664;SDS011;49820;33.966;73.390;2022-10-12T00:13:56;5.00;;;3.35;;
63664;SDS011;49820;33.966;73.390;2022-10-12T00:16:26;4.05;;;2.70;;
63664;SDS011;49820;33.966;73.390;2022-10-12T00:18:58;4.25;;;2.78;;
63664;SDS011;49820;33.966;73.390;2022-10-12T00:21:28;4.32;;;2.88;;
63664;SDS011;49820;33.966;73.390;2022-10-12T00:23:59;5.35;;;2.95;;
63664;SDS011;49820;33.966;73.390;2022-10-12T00:26:28;4.55;;;3.30;;
63664;SDS011;49820;33.966;73.390;2022-10-12T00:28:59;4.80;;;3.30;;
63664;SDS011;49820;33.966;73.390;2022-10-12T00:31:30;5.15;;;3.00;;
63664;SDS011;49820;33.966;73.390;2022-10-12T00:33:59;4.32;;;2.90;;
63664;SDS011;49820;33.966;73.390;2022-10-12T00:36:31;5.07;;;3.10;;
63664;SDS011;49820;33.966;73.390;2022-10-12T00:39:04;4.82;;;3.30;;
63664;SDS011;49820;33.966;73.390;2022-10-12T00:41:37;3.95;;;2.88;;
63664;SDS011;49820;33.966;73.390;2022-10-12T00:47:20;5.22;;;3.40;;
63664;SDS011;49820;33.966;73.390;2022-10-12T00:49:57;5.50;;;3.42;;
63664;SDS011;49820;33.966;73.390;2022-10-12T00:52:41;7.63;;;3.70;;
63664;SDS011;49820;33.966;73.390;2022-10-12T00:55:20;4.78;;;3.60;;
63664;SDS011;49820;33.966;73.390;2022-10-12T00:57:53;5.38;;;3.78;;
63664;SDS011;49820;33.966;73.390;2022-10-12T01:00:23;5.60;;;3.88;;
63664;SDS011;49820;33.966;73.390;2022-10-12T01:02:52;5.20;;;3.90;;
63664;SDS011;49820;33.966;73.390;2022-10-12T01:05:22;7.55;;;4.68;;
63664;SDS011;49820;33.966;73.390;2022-10-12T01:07:51;6.88;;;4.93;;
63664;SDS011;49820;33.966;73.390;2022-10-12T01:10:20;8.07;;;4.80;;
63664;SDS011;49820;33.966;73.390;2022-10-12T01:12:49;7.53;;;4.30;;
63664;SDS011;49820;33.966;73.390;2022-10-12T01:15:19;7.32;;;4.38;;
63664;SDS011;49820;33.966;73.390;2022-10-12T01:26:31;4.17;;;2.47;;
63664;SDS011;49820;33.966;73.390;2022-10-12T01:29:35;4.07;;;2.95;;
63664;SDS011;49820;33.966;73.390;2022-10-12T01:32:23;5.75;;;3.65;;
63664;SDS011;49820;33.966;73.390;2022-10-12T01:35:05;5.45;;;3.78;;
63664;SDS011;49820;33.966;73.390;2022-10-12T01:37:40;4.88;;;3.90;;
63664;SDS011;49820;33.966;73.390;2022-10-12T01:40:18;5.73;;;3.90;;
63664;SDS011;49820;33.966;73.390;2022-10-12T01:42:54;4.55;;;2.88;;
63664;SDS011;49820;33.966;73.390;2022-10-12T01:45:26;5.63;;;3.05;;
63664;SDS011;49820;33.966;73.390;2022-10-12T01:47:55;5.97;;;3.33;;
63664;SDS011;49820;33.966;73.390;2022-10-12T01:50:27;5.18;;;3.60;;
63664;SDS011;49820;33.966;73.390;2022-10-12T01:55:37;7.10;;;4.53;;
63664;SDS011;49820;33.966;73.390;2022-10-12T02:00:53;6.00;;;4.40;;
63664;SDS011;49820;33.966;73.390;2022-10-12T02:04:05;5.78;;;4.43;;
63664;SDS011;49820;33.966;73.390;2022-10-12T02:06:44;6.53;;;4.63;;
63664;SDS011;49820;33.966;73.390;2022-10-12T02:09:25;6.88;;;5.15;;
63664;SDS011;49820;33.966;73.390;2022-10-12T02:11:58;10.15;;;6.10;;
63664;SDS011;49820;33.966;73.390;2022-10-12T02:14:33;9.15;;;5.55;;
63664;SDS011;49820;33.966;73.390;2022-10-12T02:17:08;9.02;;;5.60;;
63664;SDS011;49820;33.966;73.390;2022-10-12T02:19:44;8.50;;;5.07;;
63664;SDS011;49820;33.966;73.390;2022-10-12T02:22:20;6.23;;;4.63;;
63664;SDS011;49820;33.966;73.390;2022-10-12T02:24:54;7.93;;;5.07;;
63664;SDS011;49820;33.966;73.390;2022-10-12T02:27:25;6.25;;;3.92;;
63664;SDS011;49820;33.966;73.390;2022-10-12T02:29:54;5.07;;;3.33;;
63664;SDS011;49820;33.966;73.390;2022-10-12T02:32:29;5.35;;;3.38;;
63664;SDS011;49820;33.966;73.390;2022-10-12T02:38:12;5.05;;;3.70;;
63664;SDS011;49820;33.966;73.390;2022-10-12T02:40:57;7.22;;;4.75;;
63664;SDS011;49820;33.966;73.390;2022-10-12T02:46:14;7.28;;;4.20;;
63664;SDS011;49820;33.966;73.390;2022-10-12T02:48:46;7.60;;;4.72;;
63664;SDS011;49820;33.966;73.390;2022-10-12T02:51:17;8.18;;;4.40;;
63664;SDS011;49820;33.966;73.390;2022-10-12T02:53:48;7.90;;;5.20;;
63664;SDS011;49820;33.966;73.390;2022-10-12T02:56:18;6.68;;;4.88;;
63664;SDS011;49820;33.966;73.390;2022-10-12T02:58:47;7.55;;;5.13;;
63664;SDS011;49820;33.966;73.390;2022-10-12T03:01:17;7.80;;;5.50;;
63664;SDS011;49820;33.966;73.390;2022-10-12T03:03:46;7.60;;;6.13;;
63664;SDS011;49820;33.966;73.390;2022-10-12T03:06:15;8.30;;;5.60;;
63664;SDS011;49820;33.966;73.390;2022-10-12T03:08:44;8.35;;;5.55;;
63664;SDS011;49820;33.966;73.390;2022-10-12T03:11:13;7.75;;;5.85;;
63664;SDS011;49820;33.966;73.390;2022-10-12T03:13:43;8.65;;;6.35;;
63664;SDS011;49820;33.966;73.390;2022-10-12T03:16:11;7.45;;;5.60;;
63664;SDS011;49820;33.966;73.390;2022-10-12T03:18:41;8.57;;;6.00;;
63664;SDS011;49820;33.966;73.390;2022-10-12T03:21:10;8.77;;;6.20;;
63664;SDS011;49820;33.966;73.390;2022-10-12T03:23:39;9.43;;;6.57;;
63664;SDS011;49820;33.966;73.390;2022-10-12T03:26:09;8.65;;;5.88;;
63664;SDS011;49820;33.966;73.390;2022-10-12T03:28:38;8.20;;;5.90;;
63664;SDS011;49820;33.966;73.390;2022-10-12T03:31:07;7.57;;;5.95;;
63664;SDS011;49820;33.966;73.390;2022-10-12T03:33:36;7.43;;;5.72;;
63664;SDS011;49820;33.966;73.390;2022-10-12T03:36:05;8.32;;;5.97;;
63664;SDS011;49820;33.966;73.390;2022-10-12T03:38:34;9.18;;;6.25;;
63664;SDS011;49820;33.966;73.390;2022-10-12T03:41:03;9.95;;;6.22;;
63664;SDS011;49820;33.966;73.390;2022-10-12T03:43:33;7.63;;;5.88;;
63664;SDS011;49820;33.966;73.390;2022-10-12T03:46:02;6.97;;;5.60;;
63664;SDS011;49820;33.966;73.390;2022-10-12T03:48:31;8.27;;;6.07;;
63664;SDS011;49820;33.966;73.390;2022-10-12T03:51:01;9.17;;;5.67;;
63664;SDS011;49820;33.966;73.390;2022-10-12T03:53:30;7.93;;;5.90;;
63664;SDS011;49820;33.966;73.390;2022-10-12T03:55:59;9.30;;;6.45;;
63664;SDS011;49820;33.966;73.390;2022-10-12T03:58:28;7.87;;;6.17;;
63664;SDS011;49820;33.966;73.390;2022-10-12T04:00:57;8.23;;;5.70;;
63664;SDS011;49820;33.966;73.390;2022-10-12T04:03:26;8.95;;;5.90;;
63664;SDS011;49820;33.966;73.390;2022-10-12T04:05:56;7.45;;;5.47;;
63664;SDS011;49820;33.966;73.390;2022-10-12T04:08:25;8.30;;;6.17;;
63664;SDS011;49820;33.966;73.390;2022-10-12T04:10:55;9.20;;;5.32;;
63664;SDS011;49820;33.966;73.390;2022-10-12T04:13:25;7.53;;;5.68;;
63664;SDS011;49820;33.966;73.390;2022-10-12T04:15:53;7.90;;;5.57;;
63664;SDS011;49820;33.966;73.390;2022-10-12T04:18:23;8.63;;;5.70;;
63664;SDS011;49820;33.966;73.390;2022-10-12T04:20:52;7.50;;;5.32;;
63664;SDS011;49820;33.966;73.390;2022-10-12T04:23:21;7.65;;;6.05;;
63664;SDS011;49820;33.966;73.390;2022-10-12T04:25:49;10.73;;;6.47;;
63664;SDS011;49820;33.966;73.390;2022-10-12T04:28:19;9.15;;;6.00;;
63664;SDS011;49820;33.966;73.390;2022-10-12T04:30:47;8.18;;;5.72;;
63664;SDS011;49820;33.966;73.390;2022-10-12T04:33:17;10.15;;;6.50;;
63664;SDS011;49820;33.966;73.390;2022-10-12T04:35:46;7.60;;;6.30;;
63664;SDS011;49820;33.966;73.390;2022-10-12T04:38:16;8.65;;;6.75;;
63664;SDS011;49820;33.966;73.390;2022-10-12T04:40:48;9.25;;;6.60;;
63664;SDS011;49820;33.966;73.390;2022-10-12T04:43:18;12.07;;;6.60;;
63664;SDS011;49820;33.966;73.390;2022-10-12T04:45:54;10.07;;;6.90;;
63664;SDS011;49820;33.966;73.390;2022-10-12T04:48:24;9.63;;;7.00;;
63664;SDS011;49820;33.966;73.390;2022-10-12T04:50:54;10.25;;;6.82;;
63664;SDS011;49820;33.966;73.390;2022-10-12T04:53:23;8.35;;;6.60;;
63664;SDS011;49820;33.966;73.390;2022-10-12T04:55:53;10.25;;;7.45;;
63664;SDS011;49820;33.966;73.390;2022-10-12T04:58:22;10.35;;;7.30;;
63664;SDS011;49820;33.966;73.390;2022-10-12T05:00:51;10.63;;;7.40;;
63664;SDS011;49820;33.966;73.390;2022-10-12T05:03:20;9.13;;;7.32;;
63664;SDS011;49820;33.966;73.390;2022-10-12T05:05:49;9.07;;;7.47;;
63664;SDS011;49820;33.966;73.390;2022-10-12T05:08:18;9.68;;;7.13;;
63664;SDS011;49820;33.966;73.390;2022-10-12T05:10:48;8.67;;;6.90;;
63664;SDS011;49820;33.966;73.390;2022-10-12T05:13:17;12.07;;;8.25;;
63664;SDS011;49820;33.966;73.390;2022-10-12T05:15:46;10.55;;;7.88;;
63664;SDS011;49820;33.966;73.390;2022-10-12T05:18:15;12.52;;;8.45;;
63664;SDS011;49820;33.966;73.390;2022-10-12T05:20:44;11.27;;;8.50;;
63664;SDS011;49820;33.966;73.390;2022-10-12T05:23:13;13.20;;;9.37;;
63664;SDS011;49820;33.966;73.390;2022-10-12T05:25:42;12.30;;;8.98;;
63664;SDS011;49820;33.966;73.390;2022-10-12T05:28:11;16.20;;;9.15;;
63664;SDS011;49820;33.966;73.390;2022-10-12T05:30:41;11.32;;;8.73;;
63664;SDS011;49820;33.966;73.390;2022-10-12T05:33:10;11.38;;;8.45;;
63664;SDS011;49820;33.966;73.390;2022-10-12T05:35:39;11.60;;;9.10;;
63664;SDS011;49820;33.966;73.390;2022-10-12T05:38:14;12.98;;;9.13;;
63664;SDS011;49820;33.966;73.390;2022-10-12T05:40:43;11.32;;;8.90;;
63664;SDS011;49820;33.966;73.390;2022-10-12T05:43:12;11.80;;;8.48;;
63664;SDS011;49820;33.966;73.390;2022-10-12T05:45:41;11.25;;;9.93;;
63664;SDS011;49820;33.966;73.390;2022-10-12T05:48:11;14.48;;;9.35;;
63664;SDS011;49820;33.966;73.390;2022-10-12T05:50:40;13.00;;;9.50;;
63664;SDS011;49820;33.966;73.390;2022-10-12T05:53:09;14.52;;;9.45;;
63664;SDS011;49820;33.966;73.390;2022-10-12T05:55:38;11.50;;;9.27;;
63664;SDS011;49820;33.966;73.390;2022-10-12T05:58:08;12.55;;;9.75;;
63664;SDS011;49820;33.966;73.390;2022-10-12T06:00:37;13.80;;;9.98;;
63664;SDS011;49820;33.966;73.390;2022-10-12T06:03:06;13.23;;;9.80;;
63664;SDS011;49820;33.966;73.390;2022-10-12T06:05:35;12.73;;;9.73;;
63664;SDS011;49820;33.966;73.390;2022-10-12T06:08:04;13.32;;;9.65;;
63664;SDS011;49820;33.966;73.390;2022-10-12T06:10:34;13.57;;;9.98;;
63664;SDS011;49820;33.966;73.390;2022-10-12T06:13:04;13.63;;;9.63;;
63664;SDS011;49820;33.966;73.390;2022-10-12T06:15:34;11.82;;;9.25;;
63664;SDS011;49820;33.966;73.390;2022-10-12T06:18:04;14.30;;;10.20;;
63664;SDS011;49820;33.966;73.390;2022-10-12T06:20:32;11.32;;;9.80;;
63664;SDS011;49820;33.966;73.390;2022-10-12T06:23:01;13.07;;;9.47;;
63664;SDS011;49820;33.966;73.390;2022-10-12T06:25:30;11.47;;;9.63;;
63664;SDS011;49820;33.966;73.390;2022-10-12T06:27:59;12.32;;;9.52;;
63664;SDS011;49820;33.966;73.390;2022-10-12T06:30:29;13.25;;;9.45;;
63664;SDS011;49820;33.966;73.390;2022-10-12T06:32:58;13.38;;;9.95;;
63664;SDS011;49820;33.966;73.390;2022-10-12T06:35:27;14.63;;;10.13;;
63664;SDS011;49820;33.966;73.390;2022-10-12T06:37:56;12.23;;;9.50;;
63664;SDS011;49820;33.966;73.390;2022-10-12T06:40:25;13.20;;;9.63;;
63664;SDS011;49820;33.966;73.390;2022-10-12T06:42:54;13.95;;;9.85;;
63664;SDS011;49820;33.966;73.390;2022-10-12T06:45:25;15.93;;;10.10;;
63664;SDS011;49820;33.966;73.390;2022-10-12T06:47:55;13.25;;;9.82;;
63664;SDS011;49820;33.966;73.390;2022-10-12T06:50:25;12.23;;;10.32;;
63664;SDS011;49820;33.966;73.390;2022-10-12T06:52:54;15.93;;;10.00;;
63664;SDS011;49820;33.966;73.390;2022-10-12T06:55:23;13.57;;;9.57;;
63664;SDS011;49820;33.966;73.390;2022-10-12T06:57:53;12.70;;;9.00;;
63664;SDS011;49820;33.966;73.390;2022-10-12T07:00:24;12.07;;;9.23;;
63664;SDS011;49820;33.966;73.390;2022-10-12T07:02:53;12.57;;;9.07;;
63664;SDS011;49820;33.966;73.390;2022-10-12T07:05:23;12.32;;;9.55;;
63664;SDS011;49820;33.966;73.390;2022-10-12T07:07:52;13.85;;;8.82;;
63664;SDS011;49820;33.966;73.390;2022-10-12T07:10:22;13.68;;;9.45;;
63664;SDS011;49820;33.966;73.390;2022-10-12T07:12:52;14.68;;;9.43;;
63664;SDS011;49820;33.966;73.390;2022-10-12T07:15:21;14.85;;;9.32;;
63664;SDS011;49820;33.966;73.390;2022-10-12T07:17:50;13.17;;;8.93;;
63664;SDS011;49820;33.966;73.390;2022-10-12T07:20:20;12.63;;;9.32;;
63664;SDS011;49820;33.966;73.390;2022-10-12T07:22:51;14.82;;;9.45;;
63664;SDS011;49820;33.966;73.390;2022-10-12T07:25:20;11.50;;;8.82;;
63664;SDS011;49820;33.966;73.390;2022-10-12T07:27:49;12.15;;;9.40;;
63664;SDS011;49820;33.966;73.390;2022-10-12T07:30:18;13.65;;;9.93;;
63664;SDS011;49820;33.966;73.390;2022-10-12T07:32:47;12.50;;;9.57;;
63664;SDS011;49820;33.966;73.390;2022-10-12T07:35:17;13.70;;;10.55;;
63664;SDS011;49820;33.966;73.390;2022-10-12T07:37:47;13.13;;;9.30;;
63664;SDS011;49820;33.966;73.390;2022-10-12T07:40:17;13.27;;;9.80;;
63664;SDS011;49820;33.966;73.390;2022-10-12T07:42:45;12.32;;;9.18;;
63664;SDS011;49820;33.966;73.390;2022-10-12T07:45:34;12.88;;;9.50;;
63664;SDS011;49820;33.966;73.390;2022-10-12T07:48:04;13.75;;;9.55;;
63664;SDS011;49820;33.966;73.390;2022-10-12T07:50:33;14.55;;;9.32;;
63664;SDS011;49820;33.966;73.390;2022-10-12T07:53:02;12.80;;;8.63;;
63664;SDS011;49820;33.966;73.390;2022-10-12T07:55:32;10.63;;;8.10;;
63664;SDS011;49820;33.966;73.390;2022-10-12T07:58:01;12.63;;;8.65;;
63664;SDS011;49820;33.966;73.390;2022-10-12T08:00:30;12.80;;;8.38;;
63664;SDS011;49820;33.966;73.390;2022-10-12T08:02:59;13.20;;;8.23;;
63664;SDS011;49820;33.966;73.390;2022-10-12T08:05:29;9.85;;;7.82;;
63664;SDS011;49820;33.966;73.390;2022-10-12T08:07:58;11.75;;;7.93;;
63664;SDS011;49820;33.966;73.390;2022-10-12T08:10:28;10.63;;;7.78;;
63664;SDS011;49820;33.966;73.390;2022-10-12T08:12:57;9.60;;;7.40;;
63664;SDS011;49820;33.966;73.390;2022-10-12T08:15:26;10.65;;;8.10;;
63664;SDS011;49820;33.966;73.390;2022-10-12T08:17:55;10.95;;;7.50;;
63664;SDS011;49820;33.966;73.390;2022-10-12T08:20:24;9.83;;;8.03;;
63664;SDS011;49820;33.966;73.390;2022-10-12T08:22:53;10.45;;;8.02;;
63664;SDS011;49820;33.966;73.390;2022-10-12T08:25:22;10.20;;;7.97;;
63664;SDS011;49820;33.966;73.390;2022-10-12T08:27:51;11.20;;;8.10;;
63664;SDS011;49820;33.966;73.390;2022-10-12T08:30:20;11.57;;;7.88;;
63664;SDS011;49820;33.966;73.390;2022-10-12T08:32:54;10.45;;;7.35;;
63664;SDS011;49820;33.966;73.390;2022-10-12T08:35:23;9.73;;;7.50;;
63664;SDS011;49820;33.966;73.390;2022-10-12T08:37:52;11.68;;;7.40;;
63664;SDS011;49820;33.966;73.390;2022-10-12T08:40:26;8.17;;;6.27;;
63664;SDS011;49820;33.966;73.390;2022-10-12T08:43:02;8.00;;;6.33;;
63664;SDS011;49820;33.966;73.390;2022-10-12T08:45:53;9.85;;;6.60;;
63664;SDS011;49820;33.966;73.390;2022-10-12T08:48:32;8.00;;;5.70;;
63664;SDS011;49820;33.966;73.390;2022-10-12T08:51:09;10.60;;;7.20;;
63664;SDS011;49820;33.966;73.390;2022-10-12T08:56:31;9.52;;;6.82;;
63664;SDS011;49820;33.966;73.390;2022-10-12T08:59:03;11.20;;;7.38;;
63664;SDS011;49820;33.966;73.390;2022-10-12T09:01:38;8.90;;;6.60;;
63664;SDS011;49820;33.966;73.390;2022-10-12T09:12:51;9.40;;;7.22;;
63664;SDS011;49820;33.966;73.390;2022-10-12T09:15:34;12.35;;;7.75;;
63664;SDS011;49820;33.966;73.390;2022-10-12T09:18:14;9.15;;;7.03;;
63664;SDS011;49820;33.966;73.390;2022-10-12T09:20:51;9.17;;;6.30;;
63664;SDS011;49820;33.966;73.390;2022-10-12T09:23:25;8.75;;;6.43;;
63664;SDS011;49820;33.966;73.390;2022-10-12T09:28:49;10.33;;;7.03;;
63664;SDS011;49820;33.966;73.390;2022-10-12T09:34:10;10.40;;;7.28;;
63664;SDS011;49820;33.966;73.390;2022-10-12T09:36:45;9.27;;;7.15;;
63664;SDS011;49820;33.966;73.390;2022-10-12T09:39:16;10.68;;;7.55;;
63664;SDS011;49820;33.966;73.390;2022-10-12T09:42:00;10.25;;;7.18;;
63664;SDS011;49820;33.966;73.390;2022-10-12T09:44:36;10.43;;;7.68;;
63664;SDS011;49820;33.966;73.390;2022-10-12T09:49:59;8.10;;;5.82;;
63664;SDS011;49820;33.966;73.390;2022-10-12T09:57:58;10.23;;;7.30;;
63664;SDS011;49820;33.966;73.390;2022-10-12T10:00:31;9.55;;;7.38;;
63664;SDS011;49820;33.966;73.390;2022-10-12T10:03:02;12.43;;;6.70;;
63664;SDS011;49820;33.966;73.390;2022-10-12T10:05:33;8.02;;;6.60;;
63664;SDS011;49820;33.966;73.390;2022-10-12T10:08:21;8.00;;;6.20;;
63664;SDS011;49820;33.966;73.390;2022-10-12T10:10:55;10.15;;;6.53;;
63664;SDS011;49820;33.966;73.390;2022-10-12T10:13:30;8.57;;;6.45;;
63664;SDS011;49820;33.966;73.390;2022-10-12T10:16:05;8.02;;;5.80;;
63664;SDS011;49820;33.966;73.390;2022-10-12T10:18:40;7.93;;;5.78;;
63664;SDS011;49820;33.966;73.390;2022-10-12T10:21:15;10.77;;;6.38;;
63664;SDS011;49820;33.966;73.390;2022-10-12T10:24:04;7.18;;;5.63;;
63664;SDS011;49820;33.966;73.390;2022-10-12T10:27:01;8.35;;;5.97;;
63664;SDS011;49820;33.966;73.390;2022-10-12T10:32:06;9.15;;;6.32;;
63664;SDS011;49820;33.966;73.390;2022-10-12T10:37:54;9.10;;;6.75;;
63664;SDS011;49820;33.966;73.390;2022-10-12T10:40:30;8.52;;;6.13;;
63664;SDS011;49820;33.966;73.390;2022-10-12T10:43:01;9.30;;;6.40;;
63664;SDS011;49820;33.966;73.390;2022-10-12T10:48:36;9.85;;;6.82;;
63664;SDS011;49820;33.966;73.390;2022-10-12T10:56:58;8.03;;;6.27;;
63664;SDS011;49820;33.966;73.390;2022-10-12T11:02:22;9.95;;;6.82;;
63664;SDS011;49820;33.966;73.390;2022-10-12T11:05:05;9.80;;;6.40;;
63664;SDS011;49820;33.966;73.390;2022-10-12T11:07:51;10.93;;;6.65;;
63664;SDS011;49820;33.966;73.390;2022-10-12T11:15:49;10.00;;;6.85;;
63664;SDS011;49820;33.966;73.390;2022-10-12T11:18:36;10.82;;;7.00;;
63664;SDS011;49820;33.966;73.390;2022-10-12T11:21:25;11.23;;;7.68;;
63664;SDS011;49820;33.966;73.390;2022-10-12T11:24:14;18.10;;;8.27;;
63664;SDS011;49820;33.966;73.390;2022-10-12T11:29:54;10.88;;;8.07;;
63664;SDS011;49820;33.966;73.390;2022-10-12T11:32:40;11.38;;;7.85;;
63664;SDS011;49820;33.966;73.390;2022-10-12T11:35:14;14.40;;;7.95;;
63664;SDS011;49820;33.966;73.390;2022-10-12T11:37:58;12.73;;;8.48;;
63664;SDS011;49820;33.966;73.390;2022-10-12T11:40:32;11.18;;;8.00;;
63664;SDS011;49820;33.966;73.390;2022-10-12T11:43:29;12.85;;;8.70;;
63664;SDS011;49820;33.966;73.390;2022-10-12T11:46:22;12.60;;;8.73;;
63664;SDS011;49820;33.966;73.390;2022-10-12T11:49:02;13.45;;;8.80;;
63664;SDS011;49820;33.966;73.390;2022-10-12T11:51:56;12.85;;;8.68;;
63664;SDS011;49820;33.966;73.390;2022-10-12T11:57:02;12.82;;;8.90;;
63664;SDS011;49820;33.966;73.390;2022-10-12T12:02:38;13.18;;;9.40;;
63664;SDS011;49820;33.966;73.390;2022-10-12T12:05:11;14.70;;;10.25;;
63664;SDS011;49820;33.966;73.390;2022-10-12T12:18:19;18.35;;;10.82;;
63664;SDS011;49820;33.966;73.390;2022-10-12T12:23:31;15.10;;;10.50;;
63664;SDS011;49820;33.966;73.390;2022-10-12T12:26:23;16.08;;;11.10;;
63664;SDS011;49820;33.966;73.390;2022-10-12T12:29:37;17.75;;;10.75;;
63664;SDS011;49820;33.966;73.390;2022-10-12T12:31:55;19.38;;;11.80;;
63664;SDS011;49820;33.966;73.390;2022-10-12T12:34:26;18.10;;;12.07;;
63664;SDS011;49820;33.966;73.390;2022-10-12T12:36:56;17.90;;;12.45;;
63664;SDS011;49820;33.966;73.390;2022-10-12T12:39:29;21.55;;;14.73;;
63664;SDS011;49820;33.966;73.390;2022-10-12T12:42:03;19.08;;;13.20;;
63664;SDS011;49820;33.966;73.390;2022-10-12T12:50:00;19.08;;;13.77;;
63664;SDS011;49820;33.966;73.390;2022-10-12T12:52:50;20.63;;;12.88;;
63664;SDS011;49820;33.966;73.390;2022-10-12T12:55:39;21.13;;;14.20;;
63664;SDS011;49820;33.966;73.390;2022-10-12T13:14:40;21.75;;;15.18;;
63664;SDS011;49820;33.966;73.390;2022-10-12T13:20:24;22.90;;;15.30;;
63664;SDS011;49820;33.966;73.390;2022-10-12T13:22:59;23.27;;;15.73;;
63664;SDS011;49820;33.966;73.390;2022-10-12T13:28:48;25.10;;;16.52;;
63664;SDS011;49820;33.966;73.390;2022-10-12T13:31:40;24.65;;;15.55;;
63664;SDS011;49820;33.966;73.390;2022-10-12T13:34:15;24.52;;;16.48;;
63664;SDS011;49820;33.966;73.390;2022-10-12T13:39:22;22.50;;;16.20;;
63664;SDS011;49820;33.966;73.390;2022-10-12T13:41:55;22.98;;;15.40;;
63664;SDS011;49820;33.966;73.390;2022-10-12T13:44:28;23.30;;;15.48;;
63664;SDS011;49820;33.966;73.390;2022-10-12T13:47:26;21.83;;;14.80;;
63664;SDS011;49820;33.966;73.390;2022-10-12T13:49:56;25.00;;;15.68;;
63664;SDS011;49820;33.966;73.390;2022-10-12T13:52:27;21.92;;;14.75;;
63664;SDS011;49820;33.966;73.390;2022-10-12T13:54:59;20.88;;;15.15;;
63664;SDS011;49820;33.966;73.390;2022-10-12T13:57:43;20.42;;;14.40;;
63664;SDS011;49820;33.966;73.390;2022-10-12T14:00:21;20.85;;;14.25;;
63664;SDS011;49820;33.966;73.390;2022-10-12T14:02:59;18.58;;;13.07;;
63664;SDS011;49820;33.966;73.390;2022-10-12T14:05:32;16.88;;;11.30;;
63664;SDS011;49820;33.966;73.390;2022-10-12T14:08:11;18.45;;;11.93;;
63664;SDS011;49820;33.966;73.390;2022-10-12T14:10:43;16.33;;;10.90;;
63664;SDS011;49820;33.966;73.390;2022-10-12T14:13:12;16.23;;;10.85;;
63664;SDS011;49820;33.966;73.390;2022-10-12T14:15:44;16.17;;;10.02;;
63664;SDS011;49820;33.966;73.390;2022-10-12T14:18:33;12.93;;;9.77;;
63664;SDS011;49820;33.966;73.390;2022-10-12T14:21:24;14.00;;;9.85;;
63664;SDS011;49820;33.966;73.390;2022-10-12T14:23:58;14.32;;;9.80;;
63664;SDS011;49820;33.966;73.390;2022-10-12T14:26:39;15.30;;;9.53;;
63664;SDS011;49820;33.966;73.390;2022-10-12T14:34:47;11.77;;;8.60;;
63664;SDS011;49820;33.966;73.390;2022-10-12T14:37:30;11.07;;;8.88;;
63664;SDS011;49820;33.966;73.390;2022-10-12T14:39:59;11.32;;;9.10;;
63664;SDS011;49820;33.966;73.390;2022-10-12T14:43:00;13.13;;;8.98;;
63664;SDS011;49820;33.966;73.390;2022-10-12T14:45:32;12.48;;;9.68;;
63664;SDS011;49820;33.966;73.390;2022-10-12T14:48:02;12.35;;;8.45;;
63664;SDS011;49820;33.966;73.390;2022-10-12T14:50:33;11.90;;;8.55;;
63664;SDS011;49820;33.966;73.390;2022-10-12T14:53:03;12.95;;;8.73;;
63664;SDS011;49820;33.966;73.390;2022-10-12T14:55:36;14.20;;;8.68;;
63664;SDS011;49820;33.966;73.390;2022-10-12T14:58:10;11.73;;;8.63;;
63664;SDS011;49820;33.966;73.390;2022-10-12T15:00:43;12.65;;;8.60;;
63664;SDS011;49820;33.966;73.390;2022-10-12T15:03:12;13.07;;;9.20;;
63664;SDS011;49820;33.966;73.390;2022-10-12T15:05:41;11.48;;;8.75;;
63664;SDS011;49820;33.966;73.390;2022-10-12T15:08:10;13.15;;;9.32;;
63664;SDS011;49820;33.966;73.390;2022-10-12T15:10:39;12.70;;;8.95;;
63664;SDS011;49820;33.966;73.390;2022-10-12T15:13:09;13.57;;;9.07;;
63664;SDS011;49820;33.966;73.390;2022-10-12T15:15:44;14.10;;;9.27;;
63664;SDS011;49820;33.966;73.390;2022-10-12T15:18:14;14.93;;;9.60;;
63664;SDS011;49820;33.966;73.390;2022-10-12T15:20:43;13.70;;;9.43;;
63664;SDS011;49820;33.966;73.390;2022-10-12T15:23:16;14.50;;;9.85;;
63664;SDS011;49820;33.966;73.390;2022-10-12T15:25:52;15.23;;;10.10;;
63664;SDS011;49820;33.966;73.390;2022-10-12T15:28:23;13.30;;;10.02;;
63664;SDS011;49820;33.966;73.390;2022-10-12T15:30:58;13.30;;;9.10;;
63664;SDS011;49820;33.966;73.390;2022-10-12T15:33:44;13.70;;;9.27;;
63664;SDS011;49820;33.966;73.390;2022-10-12T15:36:13;16.83;;;9.48;;
63664;SDS011;49820;33.966;73.390;2022-10-12T15:38:42;16.27;;;9.90;;
63664;SDS011;49820;33.966;73.390;2022-10-12T15:41:13;14.00;;;8.97;;
63664;SDS011;49820;33.966;73.390;2022-10-12T15:43:45;12.48;;;8.57;;
63664;SDS011;49820;33.966;73.390;2022-10-12T15:46:14;12.63;;;9.18;;
63664;SDS011;49820;33.966;73.390;2022-10-12T15:48:43;13.13;;;8.77;;
63664;SDS011;49820;33.966;73.390;2022-10-12T15:51:17;14.55;;;9.60;;
63664;SDS011;49820;33.966;73.390;2022-10-12T15:53:50;11.68;;;8.82;;
63664;SDS011;49820;33.966;73.390;2022-10-12T15:56:20;17.58;;;9.15;;
63664;SDS011;49820;33.966;73.390;2022-10-12T15:58:50;12.80;;;9.05;;
63664;SDS011;49820;33.966;73.390;2022-10-12T16:01:19;14.43;;;9.57;;
63664;SDS011;49820;33.966;73.390;2022-10-12T16:03:48;14.35;;;10.00;;
63664;SDS011;49820;33.966;73.390;2022-10-12T16:06:17;12.77;;;9.23;;
63664;SDS011;49820;33.966;73.390;2022-10-12T16:08:47;14.52;;;9.15;;
63664;SDS011;49820;33.966;73.390;2022-10-12T16:11:17;13.52;;;9.55;;
63664;SDS011;49820;33.966;73.390;2022-10-12T16:13:47;16.48;;;9.60;;
63664;SDS011;49820;33.966;73.390;2022-10-12T16:16:22;13.63;;;9.65;;
63664;SDS011;49820;33.966;73.390;2022-10-12T16:18:51;15.85;;;9.80;;
63664;SDS011;49820;33.966;73.390;2022-10-12T16:21:20;13.70;;;10.57;;
63664;SDS011;49820;33.966;73.390;2022-10-12T16:23:49;15.35;;;10.60;;
63664;SDS011;49820;33.966;73.390;2022-10-12T16:26:18;13.32;;;9.30;;
63664;SDS011;49820;33.966;73.390;2022-10-12T16:28:48;14.85;;;10.27;;
63664;SDS011;49820;33.966;73.390;2022-10-12T16:31:17;14.50;;;10.13;;
63664;SDS011;49820;33.966;73.390;2022-10-12T16:33:46;14.18;;;9.32;;
63664;SDS011;49820;33.966;73.390;2022-10-12T16:36:15;13.73;;;9.82;;
63664;SDS011;49820;33.966;73.390;2022-10-12T16:38:44;15.70;;;9.98;;
63664;SDS011;49820;33.966;73.390;2022-10-12T16:41:14;14.60;;;9.63;;
63664;SDS011;49820;33.966;73.390;2022-10-12T16:43:44;15.25;;;9.40;;
63664;SDS011;49820;33.966;73.390;2022-10-12T16:46:13;14.43;;;10.15;;
63664;SDS011;49820;33.966;73.390;2022-10-12T16:48:42;12.15;;;9.38;;
63664;SDS011;49820;33.966;73.390;2022-10-12T16:51:12;14.80;;;10.32;;
63664;SDS011;49820;33.966;73.390;2022-10-12T16:53:41;13.25;;;10.05;;
63664;SDS011;49820;33.966;73.390;2022-10-12T16:56:10;14.77;;;9.93;;
63664;SDS011;49820;33.966;73.390;2022-10-12T16:58:40;15.13;;;9.98;;
63664;SDS011;49820;33.966;73.390;2022-10-12T17:01:09;14.10;;;9.82;;
63664;SDS011;49820;33.966;73.390;2022-10-12T17:03:39;13.65;;;9.68;;
63664;SDS011;49820;33.966;73.390;2022-10-12T17:06:09;13.65;;;9.45;;
63664;SDS011;49820;33.966;73.390;2022-10-12T17:08:38;15.38;;;9.60;;